sensor_id;sensor_type;location;lat;lon;timestamp;P1;durP1;ratioP1;P2;durP2;ratioP2
10410;SDS011;5251;52.112;8.606;2023-04-03T00:01:31;2.53;;;1.17;;
10410;SDS011;5251;52.112;8.606;2023-04-03T00:03:58;2.20;;;1.50;;
10410;SDS011;5251;52.112;8.606;2023-04-03T00:06:24;3.22;;;1.50;;
10410;SDS011;5251;52.112;8.606;2023-04-03T00:08:51;3.88;;;1.60;;
10410;SDS011;5251;52.112;8.606;2023-04-03T00:11:17;3.13;;;1.50;;
10410;SDS011;5251;52.112;8.606;2023-04-03T00:13:44;4.13;;;1.75;;
10410;SDS011;5251;52.112;8.606;2023-04-03T00:16:10;3.00;;;1.60;;
10410;SDS011;5251;52.112;8.606;2023-04-03T00:18:37;3.08;;;1.70;;
10410;SDS011;5251;52.112;8.606;2023-04-03T00:21:03;5.93;;;1.70;;
10410;SDS011;5251;52.112;8.606;2023-04-03T00:23:30;3.38;;;1.42;;
10410;SDS011;5251;52.112;8.606;2023-04-03T00:25:56;3.17;;;1.70;;
10410;SDS011;5251;52.112;8.606;2023-04-03T00:28:21;3.63;;;1.60;;
10410;SDS011;5251;52.112;8.606;2023-04-03T00:30:50;3.85;;;1.40;;
10410;SDS011;5251;52.112;8.606;2023-04-03T00:33:16;1.52;;;1.10;;
10410;SDS011;5251;52.112;8.606;2023-04-03T00:35:42;3.08;;;1.40;;
10410;SDS011;5251;52.112;8.606;2023-04-03T00:38:07;3.75;;;1.35;;
10410;SDS011;5251;52.112;8.606;2023-04-03T00:40:34;3.70;;;1.30;;
10410;SDS011;5251;52.112;8.606;2023-04-03T00:43:02;2.58;;;1.10;;
10410;SDS011;5251;52.112;8.606;2023-04-03T00:45:40;3.20;;;1.50;;
10410;SDS011;5251;52.112;8.606;2023-04-03T00:48:08;2.97;;;1.40;;
10410;SDS011;5251;52.112;8.606;2023-04-03T00:50:39;2.40;;;1.30;;
10410;SDS011;5251;52.112;8.606;2023-04-03T00:53:08;4.13;;;1.77;;
10410;SDS011;5251;52.112;8.606;2023-04-03T00:55:39;2.80;;;1.60;;
10410;SDS011;5251;52.112;8.606;2023-04-03T00:58:05;3.42;;;1.73;;
10410;SDS011;5251;52.112;8.606;2023-04-03T01:00:32;3.30;;;1.30;;
10410;SDS011;5251;52.112;8.606;2023-04-03T01:03:01;3.60;;;1.52;;
10410;SDS011;5251;52.112;8.606;2023-04-03T01:05:26;5.55;;;1.70;;
10410;SDS011;5251;52.112;8.606;2023-04-03T01:07:52;4.40;;;1.55;;
10410;SDS011;5251;52.112;8.606;2023-04-03T01:10:18;5.35;;;1.50;;
10410;SDS011;5251;52.112;8.606;2023-04-03T01:12:46;4.10;;;1.90;;
10410;SDS011;5251;52.112;8.606;2023-04-03T01:15:16;3.03;;;1.88;;
10410;SDS011;5251;52.112;8.606;2023-04-03T01:25:36;2.30;;;1.70;;
10410;SDS011;5251;52.112;8.606;2023-04-03T01:28:04;4.57;;;2.17;;
10410;SDS011;5251;52.112;8.606;2023-04-03T01:30:32;3.47;;;1.90;;
10410;SDS011;5251;52.112;8.606;2023-04-03T01:33:01;3.92;;;1.95;;
10410;SDS011;5251;52.112;8.606;2023-04-03T01:35:27;3.13;;;1.50;;
10410;SDS011;5251;52.112;8.606;2023-04-03T01:37:52;3.17;;;1.80;;
10410;SDS011;5251;52.112;8.606;2023-04-03T01:40:18;4.82;;;1.73;;
10410;SDS011;5251;52.112;8.606;2023-04-03T01:42:44;2.78;;;1.60;;
10410;SDS011;5251;52.112;8.606;2023-04-03T01:45:10;3.05;;;1.67;;
10410;SDS011;5251;52.112;8.606;2023-04-03T01:47:36;3.15;;;1.67;;
10410;SDS011;5251;52.112;8.606;2023-04-03T01:50:01;4.30;;;1.75;;
10410;SDS011;5251;52.112;8.606;2023-04-03T01:52:27;4.55;;;1.90;;
10410;SDS011;5251;52.112;8.606;2023-04-03T01:54:53;6.20;;;1.67;;
10410;SDS011;5251;52.112;8.606;2023-04-03T01:57:18;3.97;;;2.00;;
10410;SDS011;5251;52.112;8.606;2023-04-03T01:59:44;3.13;;;1.90;;
10410;SDS011;5251;52.112;8.606;2023-04-03T02:02:10;4.38;;;1.50;;
10410;SDS011;5251;52.112;8.606;2023-04-03T02:04:37;3.85;;;2.00;;
10410;SDS011;5251;52.112;8.606;2023-04-03T02:07:03;3.95;;;2.10;;
10410;SDS011;5251;52.112;8.606;2023-04-03T02:09:28;5.65;;;1.98;;
10410;SDS011;5251;52.112;8.606;2023-04-03T02:11:54;5.47;;;2.28;;
10410;SDS011;5251;52.112;8.606;2023-04-03T02:14:20;4.75;;;1.70;;
10410;SDS011;5251;52.112;8.606;2023-04-03T02:16:46;3.83;;;1.80;;
10410;SDS011;5251;52.112;8.606;2023-04-03T02:19:12;4.75;;;2.10;;
10410;SDS011;5251;52.112;8.606;2023-04-03T02:21:38;4.40;;;1.92;;
10410;SDS011;5251;52.112;8.606;2023-04-03T02:24:03;4.03;;;1.73;;
10410;SDS011;5251;52.112;8.606;2023-04-03T02:26:30;4.57;;;2.13;;
10410;SDS011;5251;52.112;8.606;2023-04-03T02:28:55;6.00;;;2.05;;
10410;SDS011;5251;52.112;8.606;2023-04-03T02:31:21;4.45;;;1.80;;
10410;SDS011;5251;52.112;8.606;2023-04-03T02:33:47;4.22;;;1.75;;
10410;SDS011;5251;52.112;8.606;2023-04-03T02:36:13;3.78;;;1.80;;
10410;SDS011;5251;52.112;8.606;2023-04-03T02:38:38;4.90;;;1.80;;
10410;SDS011;5251;52.112;8.606;2023-04-03T02:41:05;2.25;;;1.50;;
10410;SDS011;5251;52.112;8.606;2023-04-03T02:43:32;2.60;;;1.38;;
10410;SDS011;5251;52.112;8.606;2023-04-03T02:45:58;5.15;;;1.85;;
10410;SDS011;5251;52.112;8.606;2023-04-03T02:48:24;5.03;;;1.70;;
10410;SDS011;5251;52.112;8.606;2023-04-03T02:50:50;4.75;;;1.67;;
10410;SDS011;5251;52.112;8.606;2023-04-03T02:53:16;3.53;;;1.60;;
10410;SDS011;5251;52.112;8.606;2023-04-03T02:55:42;4.20;;;1.67;;
10410;SDS011;5251;52.112;8.606;2023-04-03T02:58:08;3.85;;;1.48;;
10410;SDS011;5251;52.112;8.606;2023-04-03T03:00:34;2.40;;;1.70;;
10410;SDS011;5251;52.112;8.606;2023-04-03T03:03:00;4.63;;;1.83;;
10410;SDS011;5251;52.112;8.606;2023-04-03T03:05:25;2.65;;;1.50;;
10410;SDS011;5251;52.112;8.606;2023-04-03T03:07:52;5.18;;;1.80;;
10410;SDS011;5251;52.112;8.606;2023-04-03T03:10:18;2.55;;;1.40;;
10410;SDS011;5251;52.112;8.606;2023-04-03T03:12:43;3.92;;;1.77;;
10410;SDS011;5251;52.112;8.606;2023-04-03T03:15:09;4.40;;;1.80;;
10410;SDS011;5251;52.112;8.606;2023-04-03T03:17:35;2.97;;;1.33;;
10410;SDS011;5251;52.112;8.606;2023-04-03T03:20:01;4.25;;;2.05;;
10410;SDS011;5251;52.112;8.606;2023-04-03T03:22:27;4.30;;;2.00;;
10410;SDS011;5251;52.112;8.606;2023-04-03T03:24:53;4.47;;;2.05;;
10410;SDS011;5251;52.112;8.606;2023-04-03T03:27:19;3.10;;;1.58;;
10410;SDS011;5251;52.112;8.606;2023-04-03T03:29:45;4.43;;;1.80;;
10410;SDS011;5251;52.112;8.606;2023-04-03T03:32:11;5.75;;;2.47;;
10410;SDS011;5251;52.112;8.606;2023-04-03T03:34:37;4.38;;;1.83;;
10410;SDS011;5251;52.112;8.606;2023-04-03T03:37:03;4.07;;;1.85;;
10410;SDS011;5251;52.112;8.606;2023-04-03T03:39:28;3.80;;;1.70;;
10410;SDS011;5251;52.112;8.606;2023-04-03T03:41:54;4.53;;;1.80;;
10410;SDS011;5251;52.112;8.606;2023-04-03T03:44:20;4.15;;;1.40;;
10410;SDS011;5251;52.112;8.606;2023-04-03T03:46:45;4.10;;;1.73;;
10410;SDS011;5251;52.112;8.606;2023-04-03T03:49:11;3.45;;;1.65;;
10410;SDS011;5251;52.112;8.606;2023-04-03T03:51:37;4.00;;;1.77;;
10410;SDS011;5251;52.112;8.606;2023-04-03T03:54:05;4.50;;;1.50;;
10410;SDS011;5251;52.112;8.606;2023-04-03T03:56:31;3.13;;;1.80;;
10410;SDS011;5251;52.112;8.606;2023-04-03T03:58:57;2.38;;;1.50;;
10410;SDS011;5251;52.112;8.606;2023-04-03T04:01:23;4.47;;;1.90;;
10410;SDS011;5251;52.112;8.606;2023-04-03T04:03:49;4.22;;;1.73;;
10410;SDS011;5251;52.112;8.606;2023-04-03T04:06:15;2.80;;;1.52;;
10410;SDS011;5251;52.112;8.606;2023-04-03T04:08:40;7.32;;;1.85;;
10410;SDS011;5251;52.112;8.606;2023-04-03T04:11:06;4.22;;;1.70;;
10410;SDS011;5251;52.112;8.606;2023-04-03T04:13:32;5.13;;;1.80;;
10410;SDS011;5251;52.112;8.606;2023-04-03T04:15:57;3.65;;;1.90;;
10410;SDS011;5251;52.112;8.606;2023-04-03T04:18:23;3.22;;;1.70;;
10410;SDS011;5251;52.112;8.606;2023-04-03T04:20:49;5.63;;;1.88;;
10410;SDS011;5251;52.112;8.606;2023-04-03T04:23:15;3.47;;;1.73;;
10410;SDS011;5251;52.112;8.606;2023-04-03T04:25:43;3.83;;;1.85;;
10410;SDS011;5251;52.112;8.606;2023-04-03T04:28:13;6.25;;;2.00;;
10410;SDS011;5251;52.112;8.606;2023-04-03T04:30:39;3.47;;;1.73;;
10410;SDS011;5251;52.112;8.606;2023-04-03T04:33:05;6.00;;;2.03;;
10410;SDS011;5251;52.112;8.606;2023-04-03T04:35:31;4.32;;;1.80;;
10410;SDS011;5251;52.112;8.606;2023-04-03T04:37:57;3.55;;;1.73;;
10410;SDS011;5251;52.112;8.606;2023-04-03T04:40:23;3.63;;;2.15;;
10410;SDS011;5251;52.112;8.606;2023-04-03T04:42:48;2.85;;;1.60;;
10410;SDS011;5251;52.112;8.606;2023-04-03T04:45:14;5.35;;;1.67;;
10410;SDS011;5251;52.112;8.606;2023-04-03T04:47:40;3.78;;;1.80;;
10410;SDS011;5251;52.112;8.606;2023-04-03T04:50:06;3.45;;;2.05;;
10410;SDS011;5251;52.112;8.606;2023-04-03T04:52:32;3.70;;;2.15;;
10410;SDS011;5251;52.112;8.606;2023-04-03T04:54:58;3.83;;;1.75;;
10410;SDS011;5251;52.112;8.606;2023-04-03T04:57:23;4.03;;;2.08;;
10410;SDS011;5251;52.112;8.606;2023-04-03T04:59:49;5.88;;;2.00;;
10410;SDS011;5251;52.112;8.606;2023-04-03T05:02:15;6.25;;;2.38;;
10410;SDS011;5251;52.112;8.606;2023-04-03T05:04:40;6.53;;;2.13;;
10410;SDS011;5251;52.112;8.606;2023-04-03T05:07:06;3.85;;;1.90;;
10410;SDS011;5251;52.112;8.606;2023-04-03T05:09:31;4.65;;;2.58;;
10410;SDS011;5251;52.112;8.606;2023-04-03T05:11:57;5.78;;;2.00;;
10410;SDS011;5251;52.112;8.606;2023-04-03T05:14:23;6.03;;;2.20;;
10410;SDS011;5251;52.112;8.606;2023-04-03T05:16:48;2.92;;;2.00;;
10410;SDS011;5251;52.112;8.606;2023-04-03T05:19:17;3.22;;;1.80;;
10410;SDS011;5251;52.112;8.606;2023-04-03T05:21:43;3.75;;;1.75;;
10410;SDS011;5251;52.112;8.606;2023-04-03T05:24:09;3.78;;;2.00;;
10410;SDS011;5251;52.112;8.606;2023-04-03T05:26:34;6.32;;;2.15;;
10410;SDS011;5251;52.112;8.606;2023-04-03T05:29:00;4.53;;;2.45;;
10410;SDS011;5251;52.112;8.606;2023-04-03T05:31:26;4.75;;;2.40;;
10410;SDS011;5251;52.112;8.606;2023-04-03T05:33:54;6.55;;;2.20;;
10410;SDS011;5251;52.112;8.606;2023-04-03T05:36:20;6.80;;;2.50;;
10410;SDS011;5251;52.112;8.606;2023-04-03T05:38:46;5.78;;;2.40;;
10410;SDS011;5251;52.112;8.606;2023-04-03T05:41:12;5.35;;;2.13;;
10410;SDS011;5251;52.112;8.606;2023-04-03T05:43:39;7.03;;;2.22;;
10410;SDS011;5251;52.112;8.606;2023-04-03T05:46:11;5.68;;;2.20;;
10410;SDS011;5251;52.112;8.606;2023-04-03T05:48:38;6.10;;;2.30;;
10410;SDS011;5251;52.112;8.606;2023-04-03T05:51:04;4.82;;;2.15;;
10410;SDS011;5251;52.112;8.606;2023-04-03T05:53:31;4.10;;;2.15;;
10410;SDS011;5251;52.112;8.606;2023-04-03T05:55:59;7.47;;;2.55;;
10410;SDS011;5251;52.112;8.606;2023-04-03T05:58:25;5.07;;;2.35;;
10410;SDS011;5251;52.112;8.606;2023-04-03T06:00:51;4.22;;;2.42;;
10410;SDS011;5251;52.112;8.606;2023-04-03T06:03:16;6.55;;;2.78;;
10410;SDS011;5251;52.112;8.606;2023-04-03T06:05:42;6.20;;;2.33;;
10410;SDS011;5251;52.112;8.606;2023-04-03T06:08:07;4.53;;;2.25;;
10410;SDS011;5251;52.112;8.606;2023-04-03T06:10:34;3.95;;;2.13;;
10410;SDS011;5251;52.112;8.606;2023-04-03T06:13:01;6.63;;;2.67;;
10410;SDS011;5251;52.112;8.606;2023-04-03T06:15:27;4.18;;;1.90;;
10410;SDS011;5251;52.112;8.606;2023-04-03T06:17:53;4.18;;;2.13;;
10410;SDS011;5251;52.112;8.606;2023-04-03T06:20:18;4.10;;;2.15;;
10410;SDS011;5251;52.112;8.606;2023-04-03T06:22:44;4.22;;;2.03;;
10410;SDS011;5251;52.112;8.606;2023-04-03T06:25:10;4.50;;;1.70;;
10410;SDS011;5251;52.112;8.606;2023-04-03T06:27:37;5.90;;;1.90;;
10410;SDS011;5251;52.112;8.606;2023-04-03T06:30:03;5.38;;;1.95;;
10410;SDS011;5251;52.112;8.606;2023-04-03T06:32:29;6.30;;;2.00;;
10410;SDS011;5251;52.112;8.606;2023-04-03T06:34:55;5.85;;;2.10;;
10410;SDS011;5251;52.112;8.606;2023-04-03T06:37:22;8.27;;;2.20;;
10410;SDS011;5251;52.112;8.606;2023-04-03T06:39:50;5.07;;;2.17;;
10410;SDS011;5251;52.112;8.606;2023-04-03T06:42:16;3.70;;;1.77;;
10410;SDS011;5251;52.112;8.606;2023-04-03T06:44:42;6.10;;;2.00;;
10410;SDS011;5251;52.112;8.606;2023-04-03T06:47:12;4.80;;;2.08;;
10410;SDS011;5251;52.112;8.606;2023-04-03T06:49:39;4.65;;;2.28;;
10410;SDS011;5251;52.112;8.606;2023-04-03T06:52:05;5.95;;;2.10;;
10410;SDS011;5251;52.112;8.606;2023-04-03T06:54:31;4.30;;;2.17;;
10410;SDS011;5251;52.112;8.606;2023-04-03T06:56:57;5.22;;;1.75;;
10410;SDS011;5251;52.112;8.606;2023-04-03T06:59:22;6.80;;;2.30;;
10410;SDS011;5251;52.112;8.606;2023-04-03T07:01:48;7.85;;;2.25;;
10410;SDS011;5251;52.112;8.606;2023-04-03T07:04:14;2.67;;;1.70;;
10410;SDS011;5251;52.112;8.606;2023-04-03T07:06:40;3.15;;;1.70;;
10410;SDS011;5251;52.112;8.606;2023-04-03T07:09:07;4.93;;;2.08;;
10410;SDS011;5251;52.112;8.606;2023-04-03T07:11:34;2.33;;;1.63;;
10410;SDS011;5251;52.112;8.606;2023-04-03T07:14:01;5.50;;;2.05;;
10410;SDS011;5251;52.112;8.606;2023-04-03T07:16:27;3.05;;;1.67;;
10410;SDS011;5251;52.112;8.606;2023-04-03T07:18:55;3.55;;;1.52;;
10410;SDS011;5251;52.112;8.606;2023-04-03T07:21:21;3.20;;;1.63;;
10410;SDS011;5251;52.112;8.606;2023-04-03T07:23:46;2.97;;;1.83;;
10410;SDS011;5251;52.112;8.606;2023-04-03T07:26:12;3.50;;;1.58;;
10410;SDS011;5251;52.112;8.606;2023-04-03T07:28:38;4.00;;;1.77;;
10410;SDS011;5251;52.112;8.606;2023-04-03T07:31:06;3.28;;;1.52;;
10410;SDS011;5251;52.112;8.606;2023-04-03T07:33:36;4.22;;;1.55;;
10410;SDS011;5251;52.112;8.606;2023-04-03T07:36:02;2.70;;;1.30;;
10410;SDS011;5251;52.112;8.606;2023-04-03T07:38:28;5.03;;;1.70;;
10410;SDS011;5251;52.112;8.606;2023-04-03T07:40:54;5.35;;;2.03;;
10410;SDS011;5251;52.112;8.606;2023-04-03T07:43:21;4.00;;;1.70;;
10410;SDS011;5251;52.112;8.606;2023-04-03T07:45:47;2.80;;;1.73;;
10410;SDS011;5251;52.112;8.606;2023-04-03T07:48:17;4.03;;;1.50;;
10410;SDS011;5251;52.112;8.606;2023-04-03T07:50:44;4.55;;;1.27;;
10410;SDS011;5251;52.112;8.606;2023-04-03T07:53:10;2.75;;;1.50;;
10410;SDS011;5251;52.112;8.606;2023-04-03T07:55:36;2.50;;;1.13;;
10410;SDS011;5251;52.112;8.606;2023-04-03T07:58:08;1.55;;;1.13;;
10410;SDS011;5251;52.112;8.606;2023-04-03T08:00:39;2.45;;;1.35;;
10410;SDS011;5251;52.112;8.606;2023-04-03T08:03:06;2.97;;;1.52;;
10410;SDS011;5251;52.112;8.606;2023-04-03T08:05:37;3.10;;;1.40;;
10410;SDS011;5251;52.112;8.606;2023-04-03T08:08:07;2.97;;;1.42;;
10410;SDS011;5251;52.112;8.606;2023-04-03T08:10:34;5.68;;;1.45;;
10410;SDS011;5251;52.112;8.606;2023-04-03T08:13:00;3.88;;;1.35;;
10410;SDS011;5251;52.112;8.606;2023-04-03T08:15:26;2.75;;;1.58;;
10410;SDS011;5251;52.112;8.606;2023-04-03T08:17:51;2.80;;;1.20;;
10410;SDS011;5251;52.112;8.606;2023-04-03T08:20:18;2.30;;;1.05;;
10410;SDS011;5251;52.112;8.606;2023-04-03T08:22:43;2.60;;;1.20;;
10410;SDS011;5251;52.112;8.606;2023-04-03T08:25:09;2.85;;;1.30;;
10410;SDS011;5251;52.112;8.606;2023-04-03T08:27:35;3.40;;;1.30;;
10410;SDS011;5251;52.112;8.606;2023-04-03T08:30:01;1.88;;;1.25;;
10410;SDS011;5251;52.112;8.606;2023-04-03T08:32:26;2.83;;;1.50;;
10410;SDS011;5251;52.112;8.606;2023-04-03T08:34:52;3.70;;;1.30;;
10410;SDS011;5251;52.112;8.606;2023-04-03T08:37:18;2.28;;;1.17;;
10410;SDS011;5251;52.112;8.606;2023-04-03T08:39:44;4.72;;;1.75;;
10410;SDS011;5251;52.112;8.606;2023-04-03T08:42:19;2.00;;;1.10;;
10410;SDS011;5251;52.112;8.606;2023-04-03T08:44:47;3.72;;;1.55;;
10410;SDS011;5251;52.112;8.606;2023-04-03T08:50:18;3.00;;;1.27;;
10410;SDS011;5251;52.112;8.606;2023-04-03T08:52:56;3.58;;;1.25;;
10410;SDS011;5251;52.112;8.606;2023-04-03T08:55:25;4.95;;;1.45;;
10410;SDS011;5251;52.112;8.606;2023-04-03T08:58:09;2.55;;;1.60;;
10410;SDS011;5251;52.112;8.606;2023-04-03T09:00:47;3.45;;;1.38;;
10410;SDS011;5251;52.112;8.606;2023-04-03T09:03:21;3.28;;;1.30;;
10410;SDS011;5251;52.112;8.606;2023-04-03T09:05:55;2.30;;;1.10;;
10410;SDS011;5251;52.112;8.606;2023-04-03T09:08:27;3.42;;;1.23;;
10410;SDS011;5251;52.112;8.606;2023-04-03T09:11:09;2.55;;;1.00;;
10410;SDS011;5251;52.112;8.606;2023-04-03T09:22:23;5.10;;;1.45;;
10410;SDS011;5251;52.112;8.606;2023-04-03T09:24:54;2.05;;;1.13;;
10410;SDS011;5251;52.112;8.606;2023-04-03T09:27:22;1.77;;;1.10;;
10410;SDS011;5251;52.112;8.606;2023-04-03T09:29:47;1.98;;;1.27;;
10410;SDS011;5251;52.112;8.606;2023-04-03T09:32:34;2.22;;;1.17;;
10410;SDS011;5251;52.112;8.606;2023-04-03T09:35:10;3.15;;;1.25;;
10410;SDS011;5251;52.112;8.606;2023-04-03T09:37:44;5.55;;;1.30;;
10410;SDS011;5251;52.112;8.606;2023-04-03T09:42:51;3.63;;;1.50;;
10410;SDS011;5251;52.112;8.606;2023-04-03T09:45:22;2.75;;;1.30;;
10410;SDS011;5251;52.112;8.606;2023-04-03T09:53:26;3.70;;;1.25;;
10410;SDS011;5251;52.112;8.606;2023-04-03T09:55:55;3.10;;;1.02;;
10410;SDS011;5251;52.112;8.606;2023-04-03T09:58:25;3.92;;;1.27;;
10410;SDS011;5251;52.112;8.606;2023-04-03T10:00:54;8.00;;;1.20;;
10410;SDS011;5251;52.112;8.606;2023-04-03T10:03:27;3.20;;;1.17;;
10410;SDS011;5251;52.112;8.606;2023-04-03T10:06:04;3.55;;;1.10;;
10410;SDS011;5251;52.112;8.606;2023-04-03T10:09:02;3.10;;;1.38;;
10410;SDS011;5251;52.112;8.606;2023-04-03T10:11:30;2.20;;;1.15;;
10410;SDS011;5251;52.112;8.606;2023-04-03T10:13:57;3.33;;;1.70;;
10410;SDS011;5251;52.112;8.606;2023-04-03T10:16:47;2.67;;;1.30;;
10410;SDS011;5251;52.112;8.606;2023-04-03T10:21:51;3.85;;;1.20;;
10410;SDS011;5251;52.112;8.606;2023-04-03T10:24:31;2.13;;;1.02;;
10410;SDS011;5251;52.112;8.606;2023-04-03T10:29:35;2.83;;;1.40;;
10410;SDS011;5251;52.112;8.606;2023-04-03T10:32:32;3.50;;;1.20;;
10410;SDS011;5251;52.112;8.606;2023-04-03T10:43:29;3.20;;;1.20;;
10410;SDS011;5251;52.112;8.606;2023-04-03T10:46:02;2.00;;;1.10;;
10410;SDS011;5251;52.112;8.606;2023-04-03T10:51:44;1.38;;;1.00;;
10410;SDS011;5251;52.112;8.606;2023-04-03T10:54:13;2.28;;;1.10;;
10410;SDS011;5251;52.112;8.606;2023-04-03T10:56:47;3.95;;;1.10;;
10410;SDS011;5251;52.112;8.606;2023-04-03T10:59:25;2.10;;;1.13;;
10410;SDS011;5251;52.112;8.606;2023-04-03T11:02:04;4.13;;;1.40;;
10410;SDS011;5251;52.112;8.606;2023-04-03T11:04:52;1.35;;;1.00;;
10410;SDS011;5251;52.112;8.606;2023-04-03T11:07:31;2.08;;;1.02;;
10410;SDS011;5251;52.112;8.606;2023-04-03T11:10:03;2.55;;;1.10;;
10410;SDS011;5251;52.112;8.606;2023-04-03T11:12:42;2.92;;;1.30;;
10410;SDS011;5251;52.112;8.606;2023-04-03T11:15:17;1.85;;;0.95;;
10410;SDS011;5251;52.112;8.606;2023-04-03T11:18:42;1.58;;;1.10;;
10410;SDS011;5251;52.112;8.606;2023-04-03T11:20:56;2.22;;;1.10;;
10410;SDS011;5251;52.112;8.606;2023-04-03T11:23:30;2.70;;;1.10;;
10410;SDS011;5251;52.112;8.606;2023-04-03T11:26:06;2.17;;;1.23;;
10410;SDS011;5251;52.112;8.606;2023-04-03T11:28:35;3.53;;;1.45;;
10410;SDS011;5251;52.112;8.606;2023-04-03T11:31:15;1.88;;;1.10;;
10410;SDS011;5251;52.112;8.606;2023-04-03T11:34:05;4.32;;;1.50;;
10410;SDS011;5251;52.112;8.606;2023-04-03T11:36:45;3.42;;;1.60;;
10410;SDS011;5251;52.112;8.606;2023-04-03T11:39:25;4.68;;;1.55;;
10410;SDS011;5251;52.112;8.606;2023-04-03T11:41:54;2.42;;;1.30;;
10410;SDS011;5251;52.112;8.606;2023-04-03T11:44:38;3.47;;;1.40;;
10410;SDS011;5251;52.112;8.606;2023-04-03T11:47:05;2.58;;;1.08;;
10410;SDS011;5251;52.112;8.606;2023-04-03T11:49:51;2.83;;;1.30;;
10410;SDS011;5251;52.112;8.606;2023-04-03T12:05:49;3.28;;;1.10;;
10410;SDS011;5251;52.112;8.606;2023-04-03T12:08:16;2.35;;;0.80;;
10410;SDS011;5251;52.112;8.606;2023-04-03T12:16:22;2.42;;;1.10;;
10410;SDS011;5251;52.112;8.606;2023-04-03T12:18:59;1.52;;;1.10;;
10410;SDS011;5251;52.112;8.606;2023-04-03T12:35:00;2.67;;;1.33;;
10410;SDS011;5251;52.112;8.606;2023-04-03T12:45:47;2.05;;;0.93;;
10410;SDS011;5251;52.112;8.606;2023-04-03T12:48:18;2.67;;;1.17;;
10410;SDS011;5251;52.112;8.606;2023-04-03T12:50:50;2.22;;;1.00;;
10410;SDS011;5251;52.112;8.606;2023-04-03T12:53:18;2.53;;;1.10;;
10410;SDS011;5251;52.112;8.606;2023-04-03T12:55:46;2.40;;;1.00;;
10410;SDS011;5251;52.112;8.606;2023-04-03T12:58:16;3.33;;;1.20;;
10410;SDS011;5251;52.112;8.606;2023-04-03T13:01:11;2.83;;;1.13;;
10410;SDS011;5251;52.112;8.606;2023-04-03T13:03:48;1.65;;;1.25;;
10410;SDS011;5251;52.112;8.606;2023-04-03T13:06:18;3.15;;;1.52;;
10410;SDS011;5251;52.112;8.606;2023-04-03T13:08:50;2.13;;;1.30;;
10410;SDS011;5251;52.112;8.606;2023-04-03T13:11:17;2.88;;;1.02;;
10410;SDS011;5251;52.112;8.606;2023-04-03T13:13:58;2.33;;;1.10;;
10410;SDS011;5251;52.112;8.606;2023-04-03T13:16:24;2.95;;;1.17;;
10410;SDS011;5251;52.112;8.606;2023-04-03T13:18:52;2.47;;;1.00;;
10410;SDS011;5251;52.112;8.606;2023-04-03T13:21:23;2.08;;;1.20;;
10410;SDS011;5251;52.112;8.606;2023-04-03T13:23:52;1.83;;;1.13;;
10410;SDS011;5251;52.112;8.606;2023-04-03T13:26:24;2.83;;;1.33;;
10410;SDS011;5251;52.112;8.606;2023-04-03T13:28:53;3.72;;;1.40;;
10410;SDS011;5251;52.112;8.606;2023-04-03T13:31:23;4.55;;;1.10;;
10410;SDS011;5251;52.112;8.606;2023-04-03T13:34:12;0.88;;;0.73;;
10410;SDS011;5251;52.112;8.606;2023-04-03T13:36:56;2.75;;;1.20;;
10410;SDS011;5251;52.112;8.606;2023-04-03T13:39:25;2.05;;;1.20;;
10410;SDS011;5251;52.112;8.606;2023-04-03T13:41:59;2.33;;;1.30;;
10410;SDS011;5251;52.112;8.606;2023-04-03T13:44:35;2.80;;;1.45;;
10410;SDS011;5251;52.112;8.606;2023-04-03T13:49:38;2.03;;;1.23;;
10410;SDS011;5251;52.112;8.606;2023-04-03T13:52:22;1.42;;;1.00;;
10410;SDS011;5251;52.112;8.606;2023-04-03T13:54:58;2.88;;;1.10;;
10410;SDS011;5251;52.112;8.606;2023-04-03T13:57:25;2.53;;;1.23;;
10410;SDS011;5251;52.112;8.606;2023-04-03T13:59:53;1.83;;;1.00;;
10410;SDS011;5251;52.112;8.606;2023-04-03T14:02:22;2.50;;;1.48;;
10410;SDS011;5251;52.112;8.606;2023-04-03T14:04:57;2.47;;;1.40;;
10410;SDS011;5251;52.112;8.606;2023-04-03T14:07:26;1.55;;;1.00;;
10410;SDS011;5251;52.112;8.606;2023-04-03T14:09:54;1.48;;;1.08;;
10410;SDS011;5251;52.112;8.606;2023-04-03T14:12:27;1.98;;;1.08;;
10410;SDS011;5251;52.112;8.606;2023-04-03T14:14:58;3.80;;;1.10;;
10410;SDS011;5251;52.112;8.606;2023-04-03T14:17:25;2.85;;;1.40;;
10410;SDS011;5251;52.112;8.606;2023-04-03T14:19:53;3.20;;;1.08;;
10410;SDS011;5251;52.112;8.606;2023-04-03T14:24:49;2.90;;;1.38;;
10410;SDS011;5251;52.112;8.606;2023-04-03T14:27:17;2.28;;;1.30;;
10410;SDS011;5251;52.112;8.606;2023-04-03T14:29:49;1.20;;;1.00;;
10410;SDS011;5251;52.112;8.606;2023-04-03T14:32:16;2.10;;;1.25;;
10410;SDS011;5251;52.112;8.606;2023-04-03T14:34:44;2.40;;;1.65;;
10410;SDS011;5251;52.112;8.606;2023-04-03T14:37:15;1.73;;;0.95;;
10410;SDS011;5251;52.112;8.606;2023-04-03T14:39:42;2.42;;;1.17;;
10410;SDS011;5251;52.112;8.606;2023-04-03T14:42:12;1.02;;;0.88;;
10410;SDS011;5251;52.112;8.606;2023-04-03T14:44:40;2.10;;;1.10;;
10410;SDS011;5251;52.112;8.606;2023-04-03T14:47:08;1.27;;;1.05;;
10410;SDS011;5251;52.112;8.606;2023-04-03T14:49:38;1.50;;;1.05;;
10410;SDS011;5251;52.112;8.606;2023-04-03T14:52:04;2.45;;;1.10;;
10410;SDS011;5251;52.112;8.606;2023-04-03T14:54:30;1.95;;;1.00;;
10410;SDS011;5251;52.112;8.606;2023-04-03T14:56:57;1.30;;;1.10;;
10410;SDS011;5251;52.112;8.606;2023-04-03T14:59:23;2.03;;;1.00;;
10410;SDS011;5251;52.112;8.606;2023-04-03T15:01:50;2.80;;;1.55;;
10410;SDS011;5251;52.112;8.606;2023-04-03T15:04:19;3.53;;;1.55;;
10410;SDS011;5251;52.112;8.606;2023-04-03T15:06:45;2.70;;;1.48;;
10410;SDS011;5251;52.112;8.606;2023-04-03T15:09:26;1.73;;;1.23;;
10410;SDS011;5251;52.112;8.606;2023-04-03T15:11:54;2.63;;;1.30;;
10410;SDS011;5251;52.112;8.606;2023-04-03T15:14:20;2.60;;;1.50;;
10410;SDS011;5251;52.112;8.606;2023-04-03T15:16:46;2.13;;;1.30;;
10410;SDS011;5251;52.112;8.606;2023-04-03T15:19:12;2.97;;;1.25;;
10410;SDS011;5251;52.112;8.606;2023-04-03T15:21:38;1.92;;;1.30;;
10410;SDS011;5251;52.112;8.606;2023-04-03T15:24:04;3.58;;;1.25;;
10410;SDS011;5251;52.112;8.606;2023-04-03T15:26:30;2.10;;;1.30;;
10410;SDS011;5251;52.112;8.606;2023-04-03T15:28:57;1.85;;;1.08;;
10410;SDS011;5251;52.112;8.606;2023-04-03T15:31:22;2.00;;;1.20;;
10410;SDS011;5251;52.112;8.606;2023-04-03T15:33:49;2.05;;;1.30;;
10410;SDS011;5251;52.112;8.606;2023-04-03T15:36:14;2.60;;;1.40;;
10410;SDS011;5251;52.112;8.606;2023-04-03T15:38:40;2.67;;;1.40;;
10410;SDS011;5251;52.112;8.606;2023-04-03T15:41:06;1.98;;;1.23;;
10410;SDS011;5251;52.112;8.606;2023-04-03T15:43:32;2.75;;;1.20;;
10410;SDS011;5251;52.112;8.606;2023-04-03T15:45:59;2.50;;;1.30;;
10410;SDS011;5251;52.112;8.606;2023-04-03T15:48:25;3.13;;;1.65;;
10410;SDS011;5251;52.112;8.606;2023-04-03T15:50:52;2.67;;;1.40;;
10410;SDS011;5251;52.112;8.606;2023-04-03T15:53:18;2.50;;;1.40;;
10410;SDS011;5251;52.112;8.606;2023-04-03T15:55:44;2.78;;;1.20;;
10410;SDS011;5251;52.112;8.606;2023-04-03T15:58:09;3.80;;;1.20;;
10410;SDS011;5251;52.112;8.606;2023-04-03T16:00:36;2.40;;;1.10;;
10410;SDS011;5251;52.112;8.606;2023-04-03T16:03:06;3.15;;;1.30;;
10410;SDS011;5251;52.112;8.606;2023-04-03T16:05:36;3.58;;;1.35;;
10410;SDS011;5251;52.112;8.606;2023-04-03T16:08:03;3.47;;;1.50;;
10410;SDS011;5251;52.112;8.606;2023-04-03T16:10:30;2.33;;;1.60;;
10410;SDS011;5251;52.112;8.606;2023-04-03T16:12:55;2.83;;;1.42;;
10410;SDS011;5251;52.112;8.606;2023-04-03T16:15:22;1.83;;;1.10;;
10410;SDS011;5251;52.112;8.606;2023-04-03T16:17:49;2.80;;;1.20;;
10410;SDS011;5251;52.112;8.606;2023-04-03T16:20:15;1.88;;;1.23;;
10410;SDS011;5251;52.112;8.606;2023-04-03T16:22:41;2.45;;;1.20;;
10410;SDS011;5251;52.112;8.606;2023-04-03T16:25:08;3.10;;;1.30;;
10410;SDS011;5251;52.112;8.606;2023-04-03T16:27:34;2.15;;;1.00;;
10410;SDS011;5251;52.112;8.606;2023-04-03T16:30:00;1.98;;;1.00;;
10410;SDS011;5251;52.112;8.606;2023-04-03T16:32:26;1.60;;;1.17;;
10410;SDS011;5251;52.112;8.606;2023-04-03T16:34:54;2.80;;;1.40;;
10410;SDS011;5251;52.112;8.606;2023-04-03T16:37:20;2.40;;;1.10;;
10410;SDS011;5251;52.112;8.606;2023-04-03T16:39:46;3.00;;;1.50;;